createdAt,value
2022-09-23T00:01:23.512Z,8.63
2022-09-23T00:03:50.948Z,8.02
2022-09-23T00:06:23.019Z,7.72
2022-09-23T00:08:51.843Z,12.98
2022-09-23T00:11:28.378Z,8.80
2022-09-23T00:14:00.500Z,10.23
2022-09-23T00:16:34.648Z,9.80
2022-09-23T00:19:04.097Z,11.23
2022-09-23T00:21:31.430Z,7.72
2022-09-23T00:23:58.709Z,5.30
2022-09-23T00:26:25.915Z,7.35
2022-09-23T00:28:53.248Z,7.70
2022-09-23T00:31:25.938Z,7.10
2022-09-23T00:34:01.757Z,5.95
2022-09-23T00:36:32.192Z,7.07
2022-09-23T00:38:59.966Z,7.03
2022-09-23T00:41:27.680Z,6.70
2022-09-23T00:44:01.155Z,5.00
2022-09-23T00:46:40.423Z,8.27
2022-09-23T00:49:27.593Z,5.55
2022-09-23T00:52:05.626Z,6.18
2022-09-23T00:54:32.998Z,4.72
2022-09-23T00:57:01.370Z,8.70
2022-09-23T00:59:29.271Z,8.45
2022-09-23T01:01:59.216Z,9.55
2022-09-23T01:04:29.045Z,6.95
2022-09-23T01:06:56.485Z,7.80
2022-09-23T01:09:25.152Z,8.20
2022-09-23T01:12:24.286Z,4.93
2022-09-23T01:15:11.183Z,6.95
2022-09-23T01:18:09.285Z,8.50
2022-09-23T01:21:18.534Z,5.30
2022-09-23T01:24:39.666Z,8.15
2022-09-23T01:27:47.278Z,6.57
2022-09-23T01:30:40.899Z,5.65
2022-09-23T01:33:39.855Z,6.30
2022-09-23T01:36:24.792Z,7.97
2022-09-23T01:39:35.604Z,6.05
2022-09-23T01:43:01.404Z,5.78
2022-09-23T01:45:46.021Z,5.30
2022-09-23T01:48:50.568Z,8.15
2022-09-23T01:51:36.040Z,6.30
2022-09-23T01:54:38.896Z,5.75
2022-09-23T01:57:36.377Z,6.70
2022-09-23T02:00:14.321Z,6.50
2022-09-23T02:02:56.292Z,5.00
2022-09-23T02:05:59.465Z,7.60
2022-09-23T02:08:44.546Z,5.07
2022-09-23T02:11:15.547Z,7.88
2022-09-23T02:13:59.055Z,5.72
2022-09-23T02:16:43.991Z,6.50
2022-09-23T02:19:55.541Z,5.93
2022-09-23T02:23:03.117Z,4.70
2022-09-23T02:25:59.965Z,5.57
2022-09-23T02:28:37.442Z,4.70
2022-09-23T02:31:53.532Z,5.07
2022-09-23T02:35:08.015Z,4.35
2022-09-23T02:38:11.281Z,6.28
2022-09-23T02:41:04.650Z,4.55
2022-09-23T02:43:42.623Z,7.20
2022-09-23T02:46:10.793Z,6.05
2022-09-23T02:48:53.537Z,10.07
2022-09-23T02:51:20.963Z,3.90
2022-09-23T02:53:48.678Z,3.33
2022-09-23T02:56:21.758Z,7.75
2022-09-23T02:58:54.084Z,4.65
2022-09-23T03:01:57.174Z,4.85
2022-09-23T03:05:12.670Z,7.88
2022-09-23T03:08:25.647Z,3.70
2022-09-23T03:11:04.291Z,6.00
2022-09-23T03:14:17.750Z,4.53
2022-09-23T03:17:07.256Z,4.57
2022-09-23T03:19:54.076Z,4.18
2022-09-23T03:22:34.175Z,3.40
2022-09-23T03:25:13.638Z,5.13
2022-09-23T03:27:42.848Z,5.18
2022-09-23T03:30:13.110Z,5.53
2022-09-23T03:32:45.811Z,3.83
2022-09-23T03:35:14.606Z,8.05
2022-09-23T03:38:11.192Z,9.35
2022-09-23T03:40:43.578Z,3.83
2022-09-23T03:43:13.849Z,5.97
2022-09-23T03:45:42.590Z,4.55
2022-09-23T03:48:09.983Z,8.90
2022-09-23T03:50:37.513Z,4.30
2022-09-23T03:53:04.790Z,4.95
2022-09-23T03:55:32.219Z,10.00
2022-09-23T03:58:00.210Z,6.05
2022-09-23T04:00:27.686Z,4.80
2022-09-23T04:02:54.825Z,6.82
2022-09-23T04:05:22.054Z,7.03
2022-09-23T04:07:50.819Z,8.13
2022-09-23T04:10:18.265Z,4.47
2022-09-23T04:12:45.498Z,7.25
2022-09-23T04:15:13.115Z,7.22
2022-09-23T04:17:40.842Z,8.18
2022-09-23T04:20:09.023Z,6.05
2022-09-23T04:22:38.603Z,4.38
2022-09-23T04:25:07.210Z,4.32
2022-09-23T04:27:37.792Z,6.13
2022-09-23T04:30:06.982Z,7.97
2022-09-23T04:32:34.170Z,5.15
2022-09-23T04:35:01.488Z,5.35
2022-09-23T04:37:29.394Z,9.68
2022-09-23T04:39:56.558Z,7.35
2022-09-23T04:42:24.050Z,7.65
2022-09-23T04:44:51.371Z,8.63
2022-09-23T04:47:19.272Z,9.80
2022-09-23T04:49:46.502Z,9.15
2022-09-23T04:52:13.797Z,5.93
2022-09-23T04:54:41.706Z,10.43
2022-09-23T04:57:11.061Z,8.85
2022-09-23T04:59:38.283Z,7.93
2022-09-23T05:02:05.807Z,9.88
2022-09-23T05:04:33.198Z,11.05
2022-09-23T05:07:03.287Z,10.32
2022-09-23T05:09:31.098Z,9.57
2022-09-23T05:11:58.449Z,8.07
2022-09-23T05:14:25.648Z,9.60
2022-09-23T05:16:52.857Z,11.07
2022-09-23T05:19:20.658Z,7.00
2022-09-23T05:21:47.986Z,7.53
2022-09-23T05:24:16.670Z,7.82
2022-09-23T05:26:44.041Z,12.98
2022-09-23T05:29:11.381Z,10.90
2022-09-23T05:31:38.800Z,8.07
2022-09-23T05:34:06.851Z,6.13
2022-09-23T05:36:39.013Z,7.43
2022-09-23T05:39:08.575Z,7.75
2022-09-23T05:41:37.046Z,11.63
2022-09-23T05:44:04.773Z,6.13
2022-09-23T05:46:33.120Z,11.68
2022-09-23T05:49:03.237Z,16.98
2022-09-23T05:51:33.203Z,13.77
2022-09-23T05:54:02.780Z,9.25
2022-09-23T05:56:31.870Z,9.77
2022-09-23T05:59:02.387Z,11.05
2022-09-23T06:01:35.318Z,10.48
2022-09-23T06:04:06.739Z,7.65
2022-09-23T06:06:38.773Z,8.73
2022-09-23T06:09:08.382Z,8.02
2022-09-23T06:11:36.362Z,14.50
2022-09-23T06:14:04.658Z,9.48
2022-09-23T06:16:36.610Z,12.75
2022-09-23T06:19:07.589Z,12.43
2022-09-23T06:21:38.547Z,8.82
2022-09-23T06:24:08.937Z,12.02
2022-09-23T06:26:37.906Z,10.63
2022-09-23T06:29:14.631Z,10.45
2022-09-23T06:31:43.286Z,7.88
2022-09-23T06:34:14.172Z,11.07
2022-09-23T06:36:46.088Z,12.95
2022-09-23T06:39:15.317Z,15.90
2022-09-23T06:41:45.457Z,9.73
2022-09-23T06:44:14.951Z,7.90
2022-09-23T06:46:42.981Z,11.63
2022-09-23T06:49:12.498Z,19.55
2022-09-23T06:51:40.248Z,10.50
2022-09-23T06:54:07.950Z,7.88
2022-09-23T06:56:39.136Z,12.07
2022-09-23T06:59:09.851Z,7.55
2022-09-23T07:01:37.185Z,7.10
2022-09-23T07:04:04.796Z,7.38
2022-09-23T07:06:32.199Z,6.95
2022-09-23T07:09:00.883Z,8.57
2022-09-23T07:11:28.138Z,7.18
2022-09-23T07:13:55.347Z,6.85
2022-09-23T07:16:22.569Z,11.50
2022-09-23T07:18:49.779Z,11.40
2022-09-23T07:21:19.139Z,11.20
2022-09-23T07:23:50.333Z,7.10
2022-09-23T07:26:19.704Z,41.47
2022-09-23T07:28:47.396Z,13.50
2022-09-23T07:31:31.187Z,9.07
2022-09-23T07:34:04.624Z,10.63
2022-09-23T07:36:32.870Z,11.77
2022-09-23T07:39:03.146Z,7.95
2022-09-23T07:41:33.107Z,12.57
2022-09-23T07:44:01.317Z,6.55
2022-09-23T07:46:33.974Z,11.57
2022-09-23T07:49:03.126Z,6.30
2022-09-23T07:51:36.578Z,7.95
2022-09-23T07:54:11.025Z,11.60
2022-09-23T07:56:39.406Z,11.73
2022-09-23T07:59:11.825Z,6.10
2022-09-23T08:01:44.943Z,8.40
2022-09-23T08:04:30.994Z,7.85
2022-09-23T08:09:34.499Z,8.25
2022-09-23T08:12:02.135Z,7.78
2022-09-23T08:14:29.449Z,10.82
2022-09-23T08:16:57.502Z,10.02
2022-09-23T08:19:24.961Z,9.10
2022-09-23T08:21:52.487Z,5.93
2022-09-23T08:24:24.089Z,7.72
2022-09-23T08:26:54.306Z,6.53
2022-09-23T08:29:25.344Z,8.65
2022-09-23T08:31:53.884Z,9.68
2022-09-23T08:34:23.766Z,7.85
2022-09-23T08:36:52.322Z,7.40
2022-09-23T08:39:21.157Z,10.50
2022-09-23T08:41:58.499Z,9.50
2022-09-23T08:44:58.285Z,6.47
2022-09-23T08:47:56.473Z,10.60
2022-09-23T08:50:37.118Z,11.48
2022-09-23T08:53:15.321Z,8.18
2022-09-23T08:55:50.876Z,8.55
2022-09-23T09:01:40.565Z,5.53
2022-09-23T09:04:27.887Z,5.55
2022-09-23T09:07:34.796Z,5.05
2022-09-23T09:10:25.083Z,9.23
2022-09-23T09:13:12.109Z,10.38
2022-09-23T09:16:07.350Z,7.13
2022-09-23T09:18:40.728Z,5.50
2022-09-23T09:21:13.452Z,7.45
2022-09-23T09:23:56.468Z,4.60
2022-09-23T09:26:28.650Z,6.88
2022-09-23T09:29:33.736Z,8.90
2022-09-23T09:32:00.434Z,5.47
2022-09-23T09:34:43.121Z,6.15
2022-09-23T09:37:43.057Z,7.00
2022-09-23T09:40:20.361Z,4.75
2022-09-23T09:42:50.294Z,5.75
2022-09-23T09:45:38.557Z,6.88
2022-09-23T09:48:17.625Z,6.53
2022-09-23T09:50:56.011Z,9.50
2022-09-23T09:53:35.627Z,7.28
2022-09-23T09:56:07.420Z,8.27
2022-09-23T09:58:52.503Z,7.30
2022-09-23T10:01:34.244Z,6.00
2022-09-23T10:04:22.791Z,7.75
2022-09-23T10:07:15.747Z,7.60
2022-09-23T10:09:51.133Z,7.45
2022-09-23T10:12:24.991Z,7.65
2022-09-23T10:14:57.373Z,8.13
2022-09-23T10:17:33.866Z,9.30
2022-09-23T10:20:09.068Z,9.60
2022-09-23T10:22:42.489Z,11.13
2022-09-23T10:25:30.078Z,7.32
2022-09-23T10:27:57.362Z,7.95
2022-09-23T10:30:28.306Z,9.55
2022-09-23T10:32:56.902Z,8.25
2022-09-23T10:35:26.573Z,11.70
2022-09-23T10:38:00.452Z,7.68
2022-09-23T10:41:00.438Z,8.10
2022-09-23T10:44:26.526Z,8.80
2022-09-23T10:47:41.160Z,6.65
2022-09-23T10:50:40.145Z,10.13
2022-09-23T10:53:26.032Z,9.27
2022-09-23T10:59:16.250Z,12.57
2022-09-23T11:02:31.212Z,10.75
2022-09-23T11:05:40.455Z,10.80
2022-09-23T11:08:34.189Z,8.02
2022-09-23T11:11:55.281Z,10.82
2022-09-23T11:15:19.071Z,7.18
2022-09-23T11:18:06.719Z,7.32
2022-09-23T11:20:56.502Z,11.15
2022-09-23T11:23:54.291Z,6.95
2022-09-23T11:27:05.139Z,9.32
2022-09-23T11:29:58.287Z,8.00
2022-09-23T11:33:05.676Z,9.80
2022-09-23T11:35:57.262Z,6.65
2022-09-23T11:38:36.527Z,9.73
2022-09-23T11:41:30.911Z,8.15
2022-09-23T11:44:14.984Z,7.57
2022-09-23T11:46:51.554Z,8.40
2022-09-23T11:49:35.312Z,6.40
2022-09-23T11:52:26.305Z,7.78
2022-09-23T11:55:14.836Z,9.52
2022-09-23T11:57:54.501Z,8.65
2022-09-23T12:00:28.400Z,7.75
2022-09-23T12:03:56.018Z,9.80
2022-09-23T12:06:55.261Z,5.82
2022-09-23T12:09:57.136Z,7.30
2022-09-23T12:12:47.937Z,10.52
2022-09-23T12:16:04.064Z,10.02
2022-09-23T12:19:13.254Z,8.48
2022-09-23T12:22:52.849Z,11.02
2022-09-23T12:25:51.054Z,6.43
2022-09-23T12:28:29.583Z,6.55
2022-09-23T12:31:02.411Z,7.70
2022-09-23T12:33:33.529Z,6.93
2022-09-23T12:36:12.165Z,12.30
2022-09-23T12:38:55.070Z,10.50
2022-09-23T12:41:39.585Z,7.40
2022-09-23T12:44:14.354Z,9.07
2022-09-23T12:46:46.243Z,8.60
2022-09-23T12:49:37.537Z,8.20
2022-09-23T12:52:31.422Z,10.93
2022-09-23T12:55:24.581Z,6.72
2022-09-23T12:57:51.926Z,8.20
2022-09-23T13:00:30.956Z,8.95
2022-09-23T13:03:20.354Z,7.57
2022-09-23T13:06:19.853Z,8.70
2022-09-23T13:08:49.517Z,9.65
2022-09-23T13:11:29.035Z,7.32
2022-09-23T13:14:01.834Z,6.88
2022-09-23T13:16:39.796Z,9.48
2022-09-23T13:19:26.326Z,8.25
2022-09-23T13:22:09.387Z,6.55
2022-09-23T13:24:45.860Z,7.57
2022-09-23T13:27:31.204Z,7.75
2022-09-23T13:30:25.957Z,6.47
2022-09-23T13:33:14.382Z,7.80
2022-09-23T13:35:56.685Z,8.55
2022-09-23T13:38:29.600Z,8.80
2022-09-23T13:41:13.848Z,6.75
2022-09-23T13:44:00.483Z,11.43
2022-09-23T13:46:34.144Z,8.80
2022-09-23T13:49:02.734Z,7.30
2022-09-23T13:51:37.074Z,7.80
2022-09-23T13:54:05.421Z,10.25
2022-09-23T13:56:35.283Z,5.95
2022-09-23T13:59:27.690Z,8.45
2022-09-23T14:02:16.701Z,9.40
2022-09-23T14:04:44.668Z,9.13
2022-09-23T14:07:15.881Z,6.93
2022-09-23T14:09:51.473Z,7.85
2022-09-23T14:12:22.167Z,7.55
2022-09-23T14:14:52.483Z,10.25
2022-09-23T14:17:25.770Z,7.20
2022-09-23T14:19:53.065Z,14.60
2022-09-23T14:22:30.418Z,30.83
2022-09-23T14:24:58.487Z,8.75
2022-09-23T14:27:33.007Z,6.70
2022-09-23T14:30:03.696Z,8.47
2022-09-23T14:32:32.657Z,6.32
2022-09-23T14:34:59.879Z,9.93
2022-09-23T14:37:53.519Z,10.88
2022-09-23T14:40:50.737Z,11.65
2022-09-23T14:43:26.572Z,11.48
2022-09-23T14:45:59.073Z,11.00
2022-09-23T14:48:34.245Z,8.35
2022-09-23T14:51:07.538Z,11.20
2022-09-23T14:53:46.332Z,7.65
2022-09-23T14:56:21.109Z,10.48
2022-09-23T14:58:52.908Z,10.40
2022-09-23T15:01:38.856Z,8.35
2022-09-23T15:04:24.628Z,7.10
2022-09-23T15:09:41.075Z,8.02
2022-09-23T15:12:21.600Z,10.68
2022-09-23T15:14:56.583Z,7.85
2022-09-23T15:17:23.607Z,11.77
2022-09-23T15:20:01.295Z,6.47
2022-09-23T15:22:28.879Z,9.75
2022-09-23T15:25:35.992Z,10.40
2022-09-23T15:28:12.255Z,7.90
2022-09-23T15:30:40.558Z,10.25
2022-09-23T15:33:11.294Z,13.75
2022-09-23T15:35:46.445Z,8.40
2022-09-23T15:38:13.785Z,9.48
2022-09-23T15:40:41.306Z,8.90
2022-09-23T15:43:21.873Z,11.27
2022-09-23T15:46:06.750Z,7.97
2022-09-23T15:49:01.157Z,13.18
2022-09-23T15:51:28.822Z,10.77
2022-09-23T15:53:56.476Z,9.20
2022-09-23T15:56:27.002Z,9.18
2022-09-23T15:58:54.249Z,12.75
2022-09-23T16:01:32.095Z,10.90
2022-09-23T16:04:04.262Z,7.72
2022-09-23T16:06:32.345Z,11.50
2022-09-23T16:08:59.603Z,13.90
2022-09-23T16:11:31.959Z,19.70
2022-09-23T16:14:03.150Z,13.35
2022-09-23T16:16:31.439Z,10.00
2022-09-23T16:18:58.756Z,10.60
2022-09-23T16:21:28.450Z,8.75
2022-09-23T16:23:57.223Z,7.43
2022-09-23T16:26:29.610Z,10.52
2022-09-23T16:28:59.436Z,11.43
2022-09-23T16:31:31.219Z,9.98
2022-09-23T16:34:02.077Z,13.20
2022-09-23T16:36:43.104Z,7.20
2022-09-23T16:39:13.607Z,7.63
2022-09-23T16:41:42.776Z,12.88
2022-09-23T16:44:12.303Z,10.38
2022-09-23T16:46:42.707Z,8.98
2022-09-23T16:49:13.662Z,12.38
2022-09-23T16:51:41.311Z,9.73
2022-09-23T16:54:13.128Z,8.98
2022-09-23T16:56:44.439Z,11.35
2022-09-23T16:59:14.920Z,11.13
2022-09-23T17:02:06.010Z,15.25
2022-09-23T17:04:33.250Z,10.20
2022-09-23T17:07:00.554Z,12.35
2022-09-23T17:09:30.135Z,11.85
2022-09-23T17:12:20.222Z,12.90
2022-09-23T17:14:47.574Z,9.18
2022-09-23T17:17:15.459Z,10.82
2022-09-23T17:19:42.647Z,15.48
2022-09-23T17:22:09.990Z,7.63
2022-09-23T17:24:37.233Z,8.95
2022-09-23T17:27:04.491Z,8.23
2022-09-23T17:29:31.884Z,11.93
2022-09-23T17:31:59.273Z,7.78
2022-09-23T17:34:28.757Z,12.32
2022-09-23T17:36:55.980Z,14.52
2022-09-23T17:39:23.250Z,12.88
2022-09-23T17:41:50.479Z,13.38
2022-09-23T17:44:17.827Z,10.10
2022-09-23T17:46:44.987Z,11.20
2022-09-23T17:49:12.289Z,17.98
2022-09-23T17:51:39.617Z,11.65
2022-09-23T17:54:06.962Z,6.60
2022-09-23T17:56:34.304Z,10.07
2022-09-23T17:59:02.683Z,7.80
2022-09-23T18:01:30.477Z,16.02
2022-09-23T18:04:05.576Z,10.45
2022-09-23T18:06:36.708Z,8.85
2022-09-23T18:09:06.961Z,14.50
2022-09-23T18:11:42.190Z,9.82
2022-09-23T18:14:16.335Z,9.52
2022-09-23T18:16:47.879Z,9.27
2022-09-23T18:19:19.454Z,9.55
2022-09-23T18:21:51.940Z,9.80
2022-09-23T18:24:35.259Z,12.77
2022-09-23T18:27:02.648Z,12.77
2022-09-23T18:29:30.299Z,7.35
2022-09-23T18:31:59.114Z,8.93
2022-09-23T18:34:26.682Z,15.18
2022-09-23T18:36:56.002Z,21.70
2022-09-23T18:39:23.359Z,11.80
2022-09-23T18:41:51.033Z,10.13
2022-09-23T18:44:19.876Z,13.68
2022-09-23T18:46:47.052Z,11.73
2022-09-23T18:49:32.928Z,12.48
2022-09-23T18:52:00.379Z,12.90
2022-09-23T18:54:29.167Z,18.85
2022-09-23T18:56:56.722Z,16.50
2022-09-23T18:59:28.964Z,21.25
2022-09-23T19:01:57.321Z,19.05
2022-09-23T19:04:27.255Z,19.77
2022-09-23T19:06:56.464Z,16.10
2022-09-23T19:09:24.159Z,23.17
2022-09-23T19:11:53.282Z,18.33
2022-09-23T19:14:21.308Z,20.33
2022-09-23T19:16:51.459Z,16.45
2022-09-23T19:19:18.718Z,17.77
2022-09-23T19:21:45.985Z,18.48
2022-09-23T19:24:16.118Z,19.42
2022-09-23T19:26:44.244Z,25.95
2022-09-23T19:29:19.566Z,21.80
2022-09-23T19:34:19.660Z,19.45
2022-09-23T19:36:48.215Z,20.30
2022-09-23T19:39:26.198Z,20.75
2022-09-23T19:41:55.776Z,21.48
2022-09-23T19:44:25.052Z,20.35
2022-09-23T19:46:56.491Z,26.33
2022-09-23T19:49:25.724Z,19.67
2022-09-23T19:51:55.796Z,21.38
2022-09-23T19:54:26.563Z,28.08
2022-09-23T19:56:54.180Z,20.52
2022-09-23T19:59:21.546Z,21.20
2022-09-23T20:01:49.347Z,19.85
2022-09-23T20:04:17.036Z,20.95
2022-09-23T20:06:45.803Z,19.90
2022-09-23T20:09:13.113Z,21.38
2022-09-23T20:11:42.875Z,22.02
2022-09-23T20:14:12.879Z,22.13
2022-09-23T20:16:40.445Z,16.77
2022-09-23T20:19:07.815Z,20.35
2022-09-23T20:21:35.468Z,20.20
2022-09-23T20:24:05.650Z,20.13
2022-09-23T20:26:51.950Z,22.48
2022-09-23T20:29:19.184Z,27.25
2022-09-23T20:31:46.520Z,21.10
2022-09-23T20:34:13.746Z,22.50
2022-09-23T20:36:41.685Z,21.85
2022-09-23T20:39:10.363Z,18.65
2022-09-23T20:41:39.249Z,16.15
2022-09-23T20:44:13.944Z,20.98
2022-09-23T20:46:48.642Z,22.90
2022-09-23T20:49:17.747Z,18.27
2022-09-23T20:51:45.261Z,22.55
2022-09-23T20:54:12.448Z,15.77
2022-09-23T20:56:40.037Z,17.55
2022-09-23T20:59:07.319Z,20.63
2022-09-23T21:01:36.950Z,18.35
2022-09-23T21:04:05.704Z,19.70
2022-09-23T21:06:38.819Z,18.33
2022-09-23T21:09:07.204Z,23.70
2022-09-23T21:11:34.862Z,18.58
2022-09-23T21:14:02.524Z,22.45
2022-09-23T21:16:29.989Z,20.55
2022-09-23T21:18:58.831Z,20.92
2022-09-23T21:21:26.500Z,23.80
2022-09-23T21:23:53.864Z,20.77
2022-09-23T21:26:25.337Z,18.30
2022-09-23T21:29:00.818Z,21.58
2022-09-23T21:34:11.136Z,23.95
2022-09-23T21:36:42.801Z,21.33
2022-09-23T21:39:11.843Z,23.05
2022-09-23T21:41:39.983Z,18.63
2022-09-23T21:44:08.403Z,20.35
2022-09-23T21:46:36.888Z,20.77
2022-09-23T21:49:04.989Z,17.95
2022-09-23T21:51:42.936Z,19.33
2022-09-23T21:54:16.848Z,17.45
2022-09-23T21:56:44.930Z,17.80
2022-09-23T21:59:12.878Z,19.67
2022-09-23T22:01:44.851Z,19.73
2022-09-23T22:04:18.933Z,22.58
2022-09-23T22:06:48.754Z,20.23
2022-09-23T22:09:20.339Z,17.58
2022-09-23T22:12:09.496Z,20.80
2022-09-23T22:14:38.796Z,22.02
2022-09-23T22:17:10.327Z,19.92
2022-09-23T22:19:45.620Z,21.35
2022-09-23T22:22:17.920Z,22.15
2022-09-23T22:24:48.588Z,19.63
2022-09-23T22:27:19.974Z,21.17
2022-09-23T22:30:06.450Z,22.40
2022-09-23T22:32:46.073Z,24.27
2022-09-23T22:35:17.786Z,21.85
2022-09-23T22:37:46.148Z,25.13
2022-09-23T22:40:15.661Z,22.67
2022-09-23T22:42:43.939Z,19.23
2022-09-23T22:45:12.857Z,21.70
2022-09-23T22:47:44.015Z,22.65
2022-09-23T22:50:13.883Z,20.80
2022-09-23T22:52:41.231Z,19.90
2022-09-23T22:55:09.283Z,25.13
2022-09-23T22:57:36.874Z,29.05
2022-09-23T23:00:09.468Z,30.13
2022-09-23T23:02:36.746Z,35.53
2022-09-23T23:05:04.572Z,42.75
2022-09-23T23:07:32.086Z,27.48
2022-09-23T23:09:59.391Z,28.83
2022-09-23T23:12:26.653Z,22.45
2022-09-23T23:14:54.768Z,24.35
2022-09-23T23:17:22.017Z,28.98
2022-09-23T23:19:50.511Z,20.50
2022-09-23T23:22:17.883Z,21.88
2022-09-23T23:24:45.156Z,19.05
2022-09-23T23:27:12.428Z,19.42
2022-09-23T23:29:39.713Z,19.77
2022-09-23T23:32:07.643Z,21.27
2022-09-23T23:34:34.825Z,18.13
2022-09-23T23:37:02.060Z,18.60
2022-09-23T23:39:29.389Z,24.23
2022-09-23T23:41:58.346Z,17.45
2022-09-23T23:44:27.156Z,24.33
2022-09-23T23:46:55.235Z,19.48
2022-09-23T23:49:22.886Z,22.15
2022-09-23T23:51:50.179Z,21.58
2022-09-23T23:54:17.549Z,24.00
2022-09-23T23:56:45.267Z,21.17
2022-09-23T23:59:13.495Z,23.15
